Airfield :
LOGIN :

Register | Disclaimer

   EN    FR    IT 

 










Legend :    VFR   Marginal VFR   IFR   Intensive IFR   Very Intensive IFR
Visi :
Ceiling :
>= 8 km
>= 3000ft
5 to 8 km
1000 to 3000 ft
1500m to 5 km
500 to 1000 ft
800 to 1500m
200 to 500 ft
< 800m
< 200 ft
Symbols :   Thunderstorms  Fog  Heavy snow  Heavy precipitations  Wind > 20 kt
SIGMETs :     Misc.  Thunderstorms  Icing  Turbulence  Mountain Waves  Volcanic Ashes






- Airport Elevation : 19 ft
- IATA code : LCY


EGLC - London City

CURRENT METAR :
  • 181950Z AUTO 22009G20KT 170V250 9999 FEW043 13/08 Q1000

EXPIRED METARs :
  • 181920Z AUTO 22011KT 180V280 9999 //////TCU 13/08 Q1000
  • 181850Z AUTO 22011KT 180V250 9999 NCD 14/08 Q1000
  • 181820Z AUTO 21009KT 9999 FEW046 13/08 Q1000
  • 181750Z AUTO 22011KT 190V250 9999 NCD 14/09 Q1000
  • 181720Z AUTO 21008KT 180V320 9999 SCT033 14/09 Q1000

TAF TAF EGLC
Valid from the 18 at 18:00 until the 18 at 21:00 UTC


181703Z 1818/1821 20012KT 9999 SCT030
TEMPO 1818/1821 7000 SHRA
PROB40
TEMPO 1818/1820 23016G26KT
ATIS : +44 20 7646 0224



MET'MAP, your aeronautical weather chart ! - Copyright ORBIFLY December 2007 - Disclaimer

ORBIFLY MET'MAP TEAM :

Programming & Development : Alexandra Zaïnal
Concept & Development : Baudouin d'Aumeries
Co-Development & Prog : Marc-Olivier Méhu
Technical & hardware support : Manuel Goepfert

Contact : metmap@orbifly.com




SOURCES & CREDITS :

   NOAA